sensor_id;sensor_type;location;lat;lon;timestamp;P1;durP1;ratioP1;P2;durP2;ratioP2
14738;SDS011;7461;52.440;13.540;2023-11-22T00:00:17;17.77;;;14.77;;
14738;SDS011;7461;52.440;13.540;2023-11-22T00:03:18;13.48;;;12.18;;
14738;SDS011;7461;52.440;13.540;2023-11-22T00:06:25;16.63;;;15.07;;
14738;SDS011;7461;52.440;13.540;2023-11-22T00:09:28;12.60;;;11.57;;
14738;SDS011;7461;52.440;13.540;2023-11-22T00:15:01;12.02;;;10.77;;
14738;SDS011;7461;52.440;13.540;2023-11-22T00:17:59;11.75;;;10.73;;
14738;SDS011;7461;52.440;13.540;2023-11-22T00:20:34;11.60;;;10.55;;
14738;SDS011;7461;52.440;13.540;2023-11-22T00:23:18;11.75;;;10.02;;
14738;SDS011;7461;52.440;13.540;2023-11-22T00:29:22;11.05;;;10.15;;
14738;SDS011;7461;52.440;13.540;2023-11-22T00:34:59;9.93;;;9.13;;
14738;SDS011;7461;52.440;13.540;2023-11-22T00:37:40;10.55;;;9.57;;
14738;SDS011;7461;52.440;13.540;2023-11-22T00:40:19;10.52;;;9.55;;
14738;SDS011;7461;52.440;13.540;2023-11-22T00:43:05;10.45;;;9.13;;
14738;SDS011;7461;52.440;13.540;2023-11-22T00:49:03;10.50;;;9.50;;
14738;SDS011;7461;52.440;13.540;2023-11-22T00:51:49;21.98;;;10.95;;
14738;SDS011;7461;52.440;13.540;2023-11-22T00:54:42;10.27;;;9.35;;
14738;SDS011;7461;52.440;13.540;2023-11-22T00:58:11;9.00;;;8.20;;
14738;SDS011;7461;52.440;13.540;2023-11-22T01:04:22;12.30;;;8.35;;
14738;SDS011;7461;52.440;13.540;2023-11-22T01:07:11;13.35;;;8.60;;
14738;SDS011;7461;52.440;13.540;2023-11-22T01:09:58;13.98;;;9.98;;
14738;SDS011;7461;52.440;13.540;2023-11-22T01:12:40;9.88;;;8.98;;
14738;SDS011;7461;52.440;13.540;2023-11-22T01:15:13;10.38;;;9.45;;
14738;SDS011;7461;52.440;13.540;2023-11-22T01:17:56;9.93;;;9.13;;
14738;SDS011;7461;52.440;13.540;2023-11-22T01:21:07;11.75;;;9.52;;
14738;SDS011;7461;52.440;13.540;2023-11-22T01:26:33;10.13;;;9.23;;
14738;SDS011;7461;52.440;13.540;2023-11-22T01:29:38;9.43;;;8.68;;
14738;SDS011;7461;52.440;13.540;2023-11-22T01:32:22;9.82;;;8.82;;
14738;SDS011;7461;52.440;13.540;2023-11-22T01:35:00;11.30;;;10.27;;
14738;SDS011;7461;52.440;13.540;2023-11-22T01:37:41;12.15;;;11.00;;
14738;SDS011;7461;52.440;13.540;2023-11-22T01:40:47;10.52;;;9.63;;
14738;SDS011;7461;52.440;13.540;2023-11-22T01:43:37;9.60;;;8.80;;
14738;SDS011;7461;52.440;13.540;2023-11-22T01:46:23;11.95;;;10.88;;
14738;SDS011;7461;52.440;13.540;2023-11-22T01:49:36;11.10;;;9.98;;
14738;SDS011;7461;52.440;13.540;2023-11-22T01:52:28;11.13;;;9.18;;
14738;SDS011;7461;52.440;13.540;2023-11-22T01:55:01;11.25;;;10.18;;
14738;SDS011;7461;52.440;13.540;2023-11-22T01:57:51;9.93;;;9.02;;
14738;SDS011;7461;52.440;13.540;2023-11-22T02:00:48;10.65;;;9.65;;
14738;SDS011;7461;52.440;13.540;2023-11-22T02:03:31;10.23;;;9.15;;
14738;SDS011;7461;52.440;13.540;2023-11-22T02:06:24;10.52;;;9.48;;
14738;SDS011;7461;52.440;13.540;2023-11-22T02:09:17;10.77;;;9.43;;
14738;SDS011;7461;52.440;13.540;2023-11-22T02:12:12;11.27;;;9.95;;
14738;SDS011;7461;52.440;13.540;2023-11-22T02:17:56;11.85;;;10.43;;
14738;SDS011;7461;52.440;13.540;2023-11-22T02:20:47;11.52;;;10.05;;
14738;SDS011;7461;52.440;13.540;2023-11-22T02:29:51;9.98;;;9.07;;
14738;SDS011;7461;52.440;13.540;2023-11-22T02:38:45;9.90;;;8.90;;
14738;SDS011;7461;52.440;13.540;2023-11-22T02:41:19;11.60;;;10.55;;
14738;SDS011;7461;52.440;13.540;2023-11-22T02:44:23;9.85;;;8.93;;
14738;SDS011;7461;52.440;13.540;2023-11-22T03:06:51;7.90;;;7.25;;
14738;SDS011;7461;52.440;13.540;2023-11-22T03:09:53;8.40;;;7.60;;
14738;SDS011;7461;52.440;13.540;2023-11-22T03:12:36;7.85;;;7.15;;
14738;SDS011;7461;52.440;13.540;2023-11-22T03:21:19;6.93;;;6.22;;
14738;SDS011;7461;52.440;13.540;2023-11-22T03:24:11;8.15;;;7.43;;
14738;SDS011;7461;52.440;13.540;2023-11-22T03:27:21;6.93;;;6.22;;
14738;SDS011;7461;52.440;13.540;2023-11-22T03:32:50;7.63;;;7.00;;
14738;SDS011;7461;52.440;13.540;2023-11-22T03:36:28;8.52;;;7.93;;
14738;SDS011;7461;52.440;13.540;2023-11-22T03:48:56;7.72;;;6.97;;
14738;SDS011;7461;52.440;13.540;2023-11-22T03:51:52;6.95;;;6.38;;
14738;SDS011;7461;52.440;13.540;2023-11-22T04:03:27;6.45;;;5.90;;
14738;SDS011;7461;52.440;13.540;2023-11-22T04:12:46;7.68;;;7.07;;
14738;SDS011;7461;52.440;13.540;2023-11-22T04:15:27;9.15;;;8.30;;
14738;SDS011;7461;52.440;13.540;2023-11-22T04:18:14;10.00;;;9.10;;
14738;SDS011;7461;52.440;13.540;2023-11-22T04:28:56;10.13;;;8.77;;
14738;SDS011;7461;52.440;13.540;2023-11-22T04:31:53;8.02;;;7.32;;
14738;SDS011;7461;52.440;13.540;2023-11-22T04:40:44;10.25;;;8.75;;
14738;SDS011;7461;52.440;13.540;2023-11-22T04:43:42;10.75;;;9.10;;
14738;SDS011;7461;52.440;13.540;2023-11-22T04:46:35;8.45;;;7.75;;
14738;SDS011;7461;52.440;13.540;2023-11-22T04:52:07;10.63;;;8.88;;
14738;SDS011;7461;52.440;13.540;2023-11-22T04:55:02;10.10;;;9.25;;
14738;SDS011;7461;52.440;13.540;2023-11-22T04:57:43;11.55;;;8.00;;
14738;SDS011;7461;52.440;13.540;2023-11-22T05:00:36;9.63;;;8.00;;
14738;SDS011;7461;52.440;13.540;2023-11-22T05:10:04;9.77;;;8.88;;
14738;SDS011;7461;52.440;13.540;2023-11-22T05:12:56;10.15;;;9.30;;
14738;SDS011;7461;52.440;13.540;2023-11-22T05:18:30;10.25;;;9.32;;
14738;SDS011;7461;52.440;13.540;2023-11-22T05:21:15;9.98;;;9.02;;
14738;SDS011;7461;52.440;13.540;2023-11-22T05:27:15;9.70;;;8.90;;
14738;SDS011;7461;52.440;13.540;2023-11-22T05:45:29;10.43;;;9.48;;
14738;SDS011;7461;52.440;13.540;2023-11-22T05:49:19;9.30;;;8.60;;
14738;SDS011;7461;52.440;13.540;2023-11-22T06:00:12;10.82;;;9.75;;
14738;SDS011;7461;52.440;13.540;2023-11-22T06:16:19;11.70;;;10.50;;
14738;SDS011;7461;52.440;13.540;2023-11-22T06:19:13;14.63;;;13.52;;
14738;SDS011;7461;52.440;13.540;2023-11-22T06:23:03;15.18;;;13.73;;
14738;SDS011;7461;52.440;13.540;2023-11-22T06:25:01;12.30;;;11.23;;
14738;SDS011;7461;52.440;13.540;2023-11-22T06:27:43;12.05;;;11.05;;
14738;SDS011;7461;52.440;13.540;2023-11-22T06:30:34;15.25;;;11.00;;
14738;SDS011;7461;52.440;13.540;2023-11-22T06:39:25;13.20;;;11.95;;
14738;SDS011;7461;52.440;13.540;2023-11-22T06:42:09;13.20;;;12.05;;
14738;SDS011;7461;52.440;13.540;2023-11-22T06:45:07;14.85;;;13.20;;
14738;SDS011;7461;52.440;13.540;2023-11-22T06:47:48;15.73;;;14.05;;
14738;SDS011;7461;52.440;13.540;2023-11-22T06:50:44;15.25;;;13.75;;
14738;SDS011;7461;52.440;13.540;2023-11-22T06:53:45;16.83;;;13.00;;
14738;SDS011;7461;52.440;13.540;2023-11-22T06:56:32;14.13;;;12.82;;
14738;SDS011;7461;52.440;13.540;2023-11-22T06:59:26;16.10;;;11.45;;
14738;SDS011;7461;52.440;13.540;2023-11-22T07:02:07;12.18;;;11.02;;
14738;SDS011;7461;52.440;13.540;2023-11-22T07:04:54;14.02;;;11.10;;
14738;SDS011;7461;52.440;13.540;2023-11-22T07:07:33;12.82;;;11.73;;
14738;SDS011;7461;52.440;13.540;2023-11-22T07:10:22;18.45;;;13.38;;
14738;SDS011;7461;52.440;13.540;2023-11-22T07:13:03;13.70;;;12.40;;
14738;SDS011;7461;52.440;13.540;2023-11-22T07:15:39;15.05;;;12.15;;
14738;SDS011;7461;52.440;13.540;2023-11-22T07:18:29;13.40;;;12.18;;
14738;SDS011;7461;52.440;13.540;2023-11-22T07:21:07;14.82;;;13.00;;
14738;SDS011;7461;52.440;13.540;2023-11-22T07:23:51;15.88;;;11.43;;
14738;SDS011;7461;52.440;13.540;2023-11-22T07:26:49;15.57;;;13.98;;
14738;SDS011;7461;52.440;13.540;2023-11-22T07:29:32;14.65;;;12.30;;
14738;SDS011;7461;52.440;13.540;2023-11-22T07:32:08;14.63;;;13.32;;
14738;SDS011;7461;52.440;13.540;2023-11-22T07:34:51;12.82;;;11.50;;
14738;SDS011;7461;52.440;13.540;2023-11-22T07:37:28;14.90;;;13.38;;
14738;SDS011;7461;52.440;13.540;2023-11-22T07:40:15;13.43;;;12.30;;
14738;SDS011;7461;52.440;13.540;2023-11-22T07:42:56;15.23;;;13.73;;
14738;SDS011;7461;52.440;13.540;2023-11-22T07:45:35;15.32;;;13.73;;
14738;SDS011;7461;52.440;13.540;2023-11-22T07:48:15;16.77;;;14.40;;
14738;SDS011;7461;52.440;13.540;2023-11-22T07:50:44;14.55;;;13.25;;
14738;SDS011;7461;52.440;13.540;2023-11-22T07:53:18;15.27;;;13.65;;
14738;SDS011;7461;52.440;13.540;2023-11-22T07:58:55;13.70;;;12.48;;
14738;SDS011;7461;52.440;13.540;2023-11-22T08:01:27;14.45;;;13.07;;
14738;SDS011;7461;52.440;13.540;2023-11-22T08:03:57;13.68;;;12.52;;
14738;SDS011;7461;52.440;13.540;2023-11-22T08:06:40;14.73;;;13.38;;
14738;SDS011;7461;52.440;13.540;2023-11-22T08:09:14;14.43;;;13.15;;
14738;SDS011;7461;52.440;13.540;2023-11-22T08:11:50;16.52;;;13.23;;
14738;SDS011;7461;52.440;13.540;2023-11-22T08:14:30;12.20;;;11.27;;
14738;SDS011;7461;52.440;13.540;2023-11-22T08:17:05;14.85;;;13.45;;
14738;SDS011;7461;52.440;13.540;2023-11-22T08:19:37;12.18;;;11.27;;
14738;SDS011;7461;52.440;13.540;2023-11-22T08:22:09;16.33;;;14.55;;
14738;SDS011;7461;52.440;13.540;2023-11-22T08:24:48;14.88;;;13.43;;
14738;SDS011;7461;52.440;13.540;2023-11-22T08:27:21;13.75;;;12.40;;
14738;SDS011;7461;52.440;13.540;2023-11-22T08:30:00;14.20;;;12.95;;
14738;SDS011;7461;52.440;13.540;2023-11-22T08:32:31;15.68;;;14.25;;
14738;SDS011;7461;52.440;13.540;2023-11-22T08:35:02;13.35;;;12.25;;
14738;SDS011;7461;52.440;13.540;2023-11-22T08:37:39;15.38;;;14.00;;
14738;SDS011;7461;52.440;13.540;2023-11-22T08:40:28;14.95;;;13.50;;
14738;SDS011;7461;52.440;13.540;2023-11-22T08:43:10;18.20;;;13.98;;
14738;SDS011;7461;52.440;13.540;2023-11-22T08:45:41;14.85;;;13.13;;
14738;SDS011;7461;52.440;13.540;2023-11-22T08:48:15;13.00;;;11.88;;
14738;SDS011;7461;52.440;13.540;2023-11-22T08:50:46;13.65;;;12.55;;
14738;SDS011;7461;52.440;13.540;2023-11-22T08:53:15;12.93;;;11.73;;
14738;SDS011;7461;52.440;13.540;2023-11-22T08:55:44;13.07;;;11.95;;
14738;SDS011;7461;52.440;13.540;2023-11-22T09:01:22;11.88;;;10.75;;
14738;SDS011;7461;52.440;13.540;2023-11-22T09:03:54;12.00;;;10.95;;
14738;SDS011;7461;52.440;13.540;2023-11-22T09:06:27;11.18;;;10.18;;
14738;SDS011;7461;52.440;13.540;2023-11-22T09:09:02;12.02;;;10.98;;
14738;SDS011;7461;52.440;13.540;2023-11-22T09:11:31;12.52;;;11.43;;
14738;SDS011;7461;52.440;13.540;2023-11-22T09:14:00;12.02;;;10.98;;
14738;SDS011;7461;52.440;13.540;2023-11-22T09:16:36;12.05;;;10.73;;
14738;SDS011;7461;52.440;13.540;2023-11-22T09:19:10;12.15;;;10.52;;
14738;SDS011;7461;52.440;13.540;2023-11-22T09:21:41;11.25;;;9.65;;
14738;SDS011;7461;52.440;13.540;2023-11-22T09:24:23;11.07;;;10.07;;
14738;SDS011;7461;52.440;13.540;2023-11-22T09:27:01;12.52;;;11.43;;
14738;SDS011;7461;52.440;13.540;2023-11-22T09:29:45;10.93;;;10.02;;
14738;SDS011;7461;52.440;13.540;2023-11-22T09:32:32;11.63;;;10.60;;
14738;SDS011;7461;52.440;13.540;2023-11-22T09:41:04;10.77;;;9.90;;
14738;SDS011;7461;52.440;13.540;2023-11-22T09:44:03;10.57;;;9.75;;
14738;SDS011;7461;52.440;13.540;2023-11-22T09:46:43;11.98;;;10.82;;
14738;SDS011;7461;52.440;13.540;2023-11-22T09:49:25;11.48;;;10.55;;
14738;SDS011;7461;52.440;13.540;2023-11-22T09:54:56;10.25;;;9.40;;
14738;SDS011;7461;52.440;13.540;2023-11-22T10:00:44;11.32;;;10.32;;
14738;SDS011;7461;52.440;13.540;2023-11-22T10:03:12;11.15;;;10.02;;
14738;SDS011;7461;52.440;13.540;2023-11-22T10:06:05;12.77;;;11.50;;
14738;SDS011;7461;52.440;13.540;2023-11-22T10:09:01;12.07;;;10.85;;
14738;SDS011;7461;52.440;13.540;2023-11-22T10:11:35;10.00;;;9.02;;
14738;SDS011;7461;52.440;13.540;2023-11-22T10:14:13;11.45;;;10.38;;
14738;SDS011;7461;52.440;13.540;2023-11-22T10:17:03;11.40;;;10.40;;
14738;SDS011;7461;52.440;13.540;2023-11-22T10:19:35;11.27;;;10.15;;
14738;SDS011;7461;52.440;13.540;2023-11-22T10:22:22;12.38;;;9.65;;
14738;SDS011;7461;52.440;13.540;2023-11-22T10:24:52;11.77;;;10.82;;
14738;SDS011;7461;52.440;13.540;2023-11-22T10:27:36;11.00;;;10.05;;
14738;SDS011;7461;52.440;13.540;2023-11-22T10:30:21;10.82;;;9.85;;
14738;SDS011;7461;52.440;13.540;2023-11-22T10:33:01;9.32;;;8.63;;
14738;SDS011;7461;52.440;13.540;2023-11-22T10:35:31;11.00;;;10.00;;
14738;SDS011;7461;52.440;13.540;2023-11-22T10:38:14;9.88;;;8.88;;
14738;SDS011;7461;52.440;13.540;2023-11-22T10:40:55;14.23;;;11.40;;
14738;SDS011;7461;52.440;13.540;2023-11-22T10:43:50;11.82;;;10.73;;
14738;SDS011;7461;52.440;13.540;2023-11-22T10:54:52;10.88;;;9.82;;
14738;SDS011;7461;52.440;13.540;2023-11-22T10:57:32;11.57;;;10.57;;
14738;SDS011;7461;52.440;13.540;2023-11-22T11:00:06;11.90;;;10.75;;
14738;SDS011;7461;52.440;13.540;2023-11-22T11:05:58;12.07;;;10.07;;
14738;SDS011;7461;52.440;13.540;2023-11-22T11:08:29;13.70;;;10.35;;
14738;SDS011;7461;52.440;13.540;2023-11-22T11:14:19;10.52;;;9.73;;
14738;SDS011;7461;52.440;13.540;2023-11-22T11:20:17;11.48;;;9.75;;
14738;SDS011;7461;52.440;13.540;2023-11-22T11:22:49;9.55;;;8.85;;
14738;SDS011;7461;52.440;13.540;2023-11-22T11:25:32;10.23;;;9.32;;
14738;SDS011;7461;52.440;13.540;2023-11-22T11:28:18;11.27;;;10.48;;
14738;SDS011;7461;52.440;13.540;2023-11-22T11:30:58;10.63;;;8.70;;
14738;SDS011;7461;52.440;13.540;2023-11-22T11:33:58;10.65;;;9.27;;
14738;SDS011;7461;52.440;13.540;2023-11-22T11:36:40;10.57;;;9.65;;
14738;SDS011;7461;52.440;13.540;2023-11-22T11:39:38;10.48;;;9.52;;
14738;SDS011;7461;52.440;13.540;2023-11-22T11:42:25;9.70;;;8.80;;
14738;SDS011;7461;52.440;13.540;2023-11-22T11:45:14;10.18;;;9.40;;
14738;SDS011;7461;52.440;13.540;2023-11-22T11:50:48;10.35;;;9.40;;
14738;SDS011;7461;52.440;13.540;2023-11-22T11:53:21;9.43;;;8.68;;
14738;SDS011;7461;52.440;13.540;2023-11-22T11:56:03;11.02;;;9.27;;
14738;SDS011;7461;52.440;13.540;2023-11-22T11:58:56;9.63;;;8.93;;
14738;SDS011;7461;52.440;13.540;2023-11-22T12:04:23;9.07;;;8.38;;
14738;SDS011;7461;52.440;13.540;2023-11-22T12:07:06;9.02;;;8.27;;
14738;SDS011;7461;52.440;13.540;2023-11-22T12:09:54;9.63;;;8.73;;
14738;SDS011;7461;52.440;13.540;2023-11-22T12:12:50;14.15;;;12.82;;
14738;SDS011;7461;52.440;13.540;2023-11-22T12:15:41;10.38;;;9.48;;
14738;SDS011;7461;52.440;13.540;2023-11-22T12:18:31;10.73;;;9.82;;
14738;SDS011;7461;52.440;13.540;2023-11-22T12:24:14;9.00;;;8.30;;
14738;SDS011;7461;52.440;13.540;2023-11-22T12:27:06;9.18;;;8.30;;
14738;SDS011;7461;52.440;13.540;2023-11-22T12:29:51;8.32;;;7.47;;
14738;SDS011;7461;52.440;13.540;2023-11-22T12:32:46;7.47;;;6.72;;
14738;SDS011;7461;52.440;13.540;2023-11-22T12:35:29;8.13;;;7.40;;
14738;SDS011;7461;52.440;13.540;2023-11-22T12:38:19;7.43;;;6.82;;
14738;SDS011;7461;52.440;13.540;2023-11-22T12:41:22;8.25;;;7.45;;
14738;SDS011;7461;52.440;13.540;2023-11-22T12:44:06;7.82;;;6.95;;
14738;SDS011;7461;52.440;13.540;2023-11-22T12:46:48;7.43;;;6.93;;
14738;SDS011;7461;52.440;13.540;2023-11-22T12:49:33;7.80;;;7.10;;
14738;SDS011;7461;52.440;13.540;2023-11-22T12:52:33;8.75;;;7.90;;
14738;SDS011;7461;52.440;13.540;2023-11-22T12:55:25;8.70;;;7.90;;
14738;SDS011;7461;52.440;13.540;2023-11-22T12:58:01;9.70;;;9.00;;
14738;SDS011;7461;52.440;13.540;2023-11-22T13:03:57;7.43;;;6.82;;
14738;SDS011;7461;52.440;13.540;2023-11-22T13:06:44;8.80;;;8.10;;
14738;SDS011;7461;52.440;13.540;2023-11-22T13:10:08;8.07;;;6.68;;
14738;SDS011;7461;52.440;13.540;2023-11-22T13:12:48;9.73;;;7.32;;
14738;SDS011;7461;52.440;13.540;2023-11-22T13:18:49;8.13;;;7.47;;
14738;SDS011;7461;52.440;13.540;2023-11-22T13:24:13;11.20;;;9.25;;
14738;SDS011;7461;52.440;13.540;2023-11-22T13:27:03;11.23;;;10.13;;
14738;SDS011;7461;52.440;13.540;2023-11-22T13:29:39;9.27;;;8.40;;
14738;SDS011;7461;52.440;13.540;2023-11-22T13:32:24;8.95;;;8.23;;
14738;SDS011;7461;52.440;13.540;2023-11-22T13:38:10;9.65;;;8.85;;
14738;SDS011;7461;52.440;13.540;2023-11-22T13:43:41;10.82;;;9.82;;
14738;SDS011;7461;52.440;13.540;2023-11-22T13:46:27;8.15;;;7.55;;
14738;SDS011;7461;52.440;13.540;2023-11-22T13:52:02;9.45;;;8.75;;
14738;SDS011;7461;52.440;13.540;2023-11-22T13:54:46;9.23;;;8.43;;
14738;SDS011;7461;52.440;13.540;2023-11-22T13:57:38;9.85;;;8.98;;
14738;SDS011;7461;52.440;13.540;2023-11-22T14:03:35;9.07;;;8.23;;
14738;SDS011;7461;52.440;13.540;2023-11-22T14:06:30;14.35;;;13.15;;
14738;SDS011;7461;52.440;13.540;2023-11-22T14:09:11;15.50;;;12.98;;
14738;SDS011;7461;52.440;13.540;2023-11-22T14:12:06;13.07;;;11.95;;
14738;SDS011;7461;52.440;13.540;2023-11-22T14:14:55;13.65;;;12.52;;
14738;SDS011;7461;52.440;13.540;2023-11-22T14:17:40;12.90;;;11.77;;
14738;SDS011;7461;52.440;13.540;2023-11-22T14:20:42;14.75;;;13.30;;
14738;SDS011;7461;52.440;13.540;2023-11-22T14:23:28;11.35;;;10.35;;
14738;SDS011;7461;52.440;13.540;2023-11-22T14:26:08;15.02;;;13.50;;
14738;SDS011;7461;52.440;13.540;2023-11-22T14:28:58;9.35;;;8.48;;
14738;SDS011;7461;52.440;13.540;2023-11-22T14:31:39;8.95;;;8.25;;
14738;SDS011;7461;52.440;13.540;2023-11-22T14:34:27;10.45;;;9.55;;
14738;SDS011;7461;52.440;13.540;2023-11-22T14:37:20;11.23;;;10.18;;
14738;SDS011;7461;52.440;13.540;2023-11-22T14:40:10;9.32;;;8.68;;
14738;SDS011;7461;52.440;13.540;2023-11-22T14:42:51;12.18;;;10.10;;
14738;SDS011;7461;52.440;13.540;2023-11-22T14:45:34;10.82;;;9.65;;
14738;SDS011;7461;52.440;13.540;2023-11-22T14:48:04;11.60;;;10.68;;
14738;SDS011;7461;52.440;13.540;2023-11-22T14:50:39;10.57;;;9.70;;
14738;SDS011;7461;52.440;13.540;2023-11-22T14:53:19;9.68;;;8.80;;
14738;SDS011;7461;52.440;13.540;2023-11-22T14:56:47;9.65;;;8.85;;
14738;SDS011;7461;52.440;13.540;2023-11-22T14:59:05;11.82;;;9.77;;
14738;SDS011;7461;52.440;13.540;2023-11-22T15:01:57;12.52;;;11.32;;
14738;SDS011;7461;52.440;13.540;2023-11-22T15:04:49;11.73;;;10.63;;
14738;SDS011;7461;52.440;13.540;2023-11-22T15:07:41;12.02;;;10.88;;
14738;SDS011;7461;52.440;13.540;2023-11-22T15:10:29;9.98;;;9.23;;
14738;SDS011;7461;52.440;13.540;2023-11-22T15:13:49;11.73;;;10.18;;
14738;SDS011;7461;52.440;13.540;2023-11-22T15:16:27;14.10;;;12.27;;
14738;SDS011;7461;52.440;13.540;2023-11-22T15:19:16;13.38;;;12.25;;
14738;SDS011;7461;52.440;13.540;2023-11-22T15:22:12;12.38;;;11.20;;
14738;SDS011;7461;52.440;13.540;2023-11-22T15:25:21;12.75;;;11.55;;
14738;SDS011;7461;52.440;13.540;2023-11-22T15:28:16;13.55;;;12.15;;
14738;SDS011;7461;52.440;13.540;2023-11-22T15:31:13;11.55;;;10.57;;
14738;SDS011;7461;52.440;13.540;2023-11-22T15:34:21;11.95;;;10.80;;
14738;SDS011;7461;52.440;13.540;2023-11-22T15:40:44;13.57;;;11.95;;
14738;SDS011;7461;52.440;13.540;2023-11-22T15:43:39;14.25;;;11.55;;
14738;SDS011;7461;52.440;13.540;2023-11-22T15:46:38;15.43;;;12.98;;
14738;SDS011;7461;52.440;13.540;2023-11-22T15:49:18;12.55;;;11.25;;
14738;SDS011;7461;52.440;13.540;2023-11-22T16:34:31;12.73;;;11.63;;
14738;SDS011;7461;52.440;13.540;2023-11-22T16:37:21;14.25;;;12.82;;
14738;SDS011;7461;52.440;13.540;2023-11-22T16:40:28;12.05;;;10.98;;
14738;SDS011;7461;52.440;13.540;2023-11-22T16:43:06;10.80;;;9.93;;
14738;SDS011;7461;52.440;13.540;2023-11-22T16:46:05;13.32;;;12.13;;
14738;SDS011;7461;52.440;13.540;2023-11-22T16:48:37;12.82;;;11.45;;
14738;SDS011;7461;52.440;13.540;2023-11-22T16:51:30;14.38;;;12.40;;
14738;SDS011;7461;52.440;13.540;2023-11-22T16:54:23;12.40;;;11.20;;
14738;SDS011;7461;52.440;13.540;2023-11-22T17:02:04;13.32;;;11.90;;
14738;SDS011;7461;52.440;13.540;2023-11-22T17:50:02;16.35;;;14.75;;
14738;SDS011;7461;52.440;13.540;2023-11-22T17:52:38;18.58;;;17.00;;
14738;SDS011;7461;52.440;13.540;2023-11-22T17:55:24;13.98;;;12.57;;
14738;SDS011;7461;52.440;13.540;2023-11-22T17:58:17;14.48;;;13.02;;
14738;SDS011;7461;52.440;13.540;2023-11-22T18:16:16;14.77;;;13.25;;
14738;SDS011;7461;52.440;13.540;2023-11-22T18:22:08;15.02;;;13.82;;
14738;SDS011;7461;52.440;13.540;2023-11-22T18:24:58;14.27;;;13.05;;
14738;SDS011;7461;52.440;13.540;2023-11-22T18:27:43;15.20;;;13.70;;
14738;SDS011;7461;52.440;13.540;2023-11-22T18:30:21;16.42;;;14.93;;
14738;SDS011;7461;52.440;13.540;2023-11-22T18:33:14;16.70;;;15.07;;
14738;SDS011;7461;52.440;13.540;2023-11-22T18:38:52;16.90;;;15.15;;
14738;SDS011;7461;52.440;13.540;2023-11-22T18:41:52;17.50;;;16.00;;
14738;SDS011;7461;52.440;13.540;2023-11-22T18:44:55;19.70;;;17.77;;
14738;SDS011;7461;52.440;13.540;2023-11-22T19:05:22;19.52;;;17.63;;
14738;SDS011;7461;52.440;13.540;2023-11-22T19:10:54;20.52;;;18.55;;
14738;SDS011;7461;52.440;13.540;2023-11-22T19:13:42;22.63;;;20.23;;
14738;SDS011;7461;52.440;13.540;2023-11-22T19:19:37;21.63;;;19.55;;
14738;SDS011;7461;52.440;13.540;2023-11-22T19:28:34;23.67;;;21.67;;
14738;SDS011;7461;52.440;13.540;2023-11-22T19:35:02;22.60;;;20.38;;
14738;SDS011;7461;52.440;13.540;2023-11-22T19:36:51;23.77;;;21.63;;
14738;SDS011;7461;52.440;13.540;2023-11-22T19:39:52;23.23;;;21.02;;
14738;SDS011;7461;52.440;13.540;2023-11-22T19:42:24;26.45;;;24.17;;
14738;SDS011;7461;52.440;13.540;2023-11-22T19:48:11;23.83;;;21.77;;
14738;SDS011;7461;52.440;13.540;2023-11-22T19:53:44;23.58;;;21.33;;
14738;SDS011;7461;52.440;13.540;2023-11-22T19:59:26;24.23;;;21.92;;
14738;SDS011;7461;52.440;13.540;2023-11-22T20:02:25;25.70;;;22.95;;
14738;SDS011;7461;52.440;13.540;2023-11-22T20:13:19;28.90;;;25.67;;
14738;SDS011;7461;52.440;13.540;2023-11-22T20:22:32;29.38;;;26.50;;
14738;SDS011;7461;52.440;13.540;2023-11-22T20:31:20;28.05;;;25.63;;
14738;SDS011;7461;52.440;13.540;2023-11-22T20:34:01;25.92;;;23.35;;
14738;SDS011;7461;52.440;13.540;2023-11-22T20:37:54;31.63;;;28.63;;
14738;SDS011;7461;52.440;13.540;2023-11-22T20:48:07;29.92;;;27.00;;
14738;SDS011;7461;52.440;13.540;2023-11-22T20:50:38;32.75;;;29.90;;
14738;SDS011;7461;52.440;13.540;2023-11-22T20:53:45;29.95;;;27.33;;
14738;SDS011;7461;52.440;13.540;2023-11-22T20:59:21;31.05;;;27.75;;
14738;SDS011;7461;52.440;13.540;2023-11-22T21:02:10;29.88;;;26.98;;
14738;SDS011;7461;52.440;13.540;2023-11-22T21:57:09;32.78;;;28.48;;
14738;SDS011;7461;52.440;13.540;2023-11-22T22:30:49;29.73;;;26.70;;
14738;SDS011;7461;52.440;13.540;2023-11-22T22:33:39;27.63;;;24.73;;
14738;SDS011;7461;52.440;13.540;2023-11-22T23:44:57;20.70;;;19.10;;
